sensor_id;sensor_type;location;lat;lon;timestamp;pressure;altitude;pressure_sealevel;temperature
67515;BMP280;60646;55.802;37.032;2023-10-31T00:00:10;98965.13;;;12.60
67515;BMP280;60646;55.802;37.032;2023-10-31T00:02:38;98964.31;;;12.65
67515;BMP280;60646;55.802;37.032;2023-10-31T00:05:04;98963.06;;;12.66
67515;BMP280;60646;55.802;37.032;2023-10-31T00:07:30;98976.44;;;12.66
67515;BMP280;60646;55.802;37.032;2023-10-31T00:09:56;98951.59;;;12.52
67515;BMP280;60646;55.802;37.032;2023-10-31T00:12:22;98965.41;;;12.56
67515;BMP280;60646;55.802;37.032;2023-10-31T00:14:48;98982.34;;;12.64
67515;BMP280;60646;55.802;37.032;2023-10-31T00:17:13;98997.59;;;12.69
67515;BMP280;60646;55.802;37.032;2023-10-31T00:19:39;98993.38;;;12.61
67515;BMP280;60646;55.802;37.032;2023-10-31T00:22:05;98975.47;;;12.50
67515;BMP280;60646;55.802;37.032;2023-10-31T00:24:31;98989.22;;;12.60
67515;BMP280;60646;55.802;37.032;2023-10-31T00:26:58;98992.41;;;12.58
67515;BMP280;60646;55.802;37.032;2023-10-31T00:29:24;99005.81;;;12.58
67515;BMP280;60646;55.802;37.032;2023-10-31T00:31:49;98999.00;;;12.57
67515;BMP280;60646;55.802;37.032;2023-10-31T00:34:15;99000.25;;;12.56
67515;BMP280;60646;55.802;37.032;2023-10-31T00:36:41;98996.91;;;12.50
67515;BMP280;60646;55.802;37.032;2023-10-31T00:39:07;98981.00;;;12.39
67515;BMP280;60646;55.802;37.032;2023-10-31T00:41:33;98990.69;;;12.42
67515;BMP280;60646;55.802;37.032;2023-10-31T00:43:59;98994.41;;;12.39
67515;BMP280;60646;55.802;37.032;2023-10-31T00:46:24;99018.78;;;12.54
67515;BMP280;60646;55.802;37.032;2023-10-31T00:48:50;99011.34;;;12.47
67515;BMP280;60646;55.802;37.032;2023-10-31T00:51:16;99036.72;;;12.59
67515;BMP280;60646;55.802;37.032;2023-10-31T00:53:42;99052.50;;;12.63
67515;BMP280;60646;55.802;37.032;2023-10-31T00:56:08;99016.03;;;12.41
67515;BMP280;60646;55.802;37.032;2023-10-31T00:58:34;99028.56;;;12.52
67515;BMP280;60646;55.802;37.032;2023-10-31T01:00:59;99003.44;;;12.36
67515;BMP280;60646;55.802;37.032;2023-10-31T01:03:25;99041.03;;;12.62
67515;BMP280;60646;55.802;37.032;2023-10-31T01:05:51;99052.31;;;12.61
67515;BMP280;60646;55.802;37.032;2023-10-31T01:08:17;99029.22;;;12.39
67515;BMP280;60646;55.802;37.032;2023-10-31T01:10:43;99043.25;;;12.45
67515;BMP280;60646;55.802;37.032;2023-10-31T01:13:08;99048.16;;;12.41
67515;BMP280;60646;55.802;37.032;2023-10-31T01:15:34;99029.81;;;12.32
67515;BMP280;60646;55.802;37.032;2023-10-31T01:18:00;99053.97;;;12.45
67515;BMP280;60646;55.802;37.032;2023-10-31T01:20:26;99045.56;;;12.36
67515;BMP280;60646;55.802;37.032;2023-10-31T01:22:52;99065.50;;;12.40
67515;BMP280;60646;55.802;37.032;2023-10-31T01:25:18;99081.00;;;12.47
67515;BMP280;60646;55.802;37.032;2023-10-31T01:27:44;99068.66;;;12.39
67515;BMP280;60646;55.802;37.032;2023-10-31T01:30:10;99059.53;;;12.28
67515;BMP280;60646;55.802;37.032;2023-10-31T01:32:36;99075.53;;;12.34
67515;BMP280;60646;55.802;37.032;2023-10-31T01:35:02;99105.81;;;12.48
67515;BMP280;60646;55.802;37.032;2023-10-31T01:37:30;99081.91;;;12.31
67515;BMP280;60646;55.802;37.032;2023-10-31T01:39:56;99086.25;;;12.34
67515;BMP280;60646;55.802;37.032;2023-10-31T01:42:22;99069.91;;;12.19
67515;BMP280;60646;55.802;37.032;2023-10-31T01:44:47;99079.31;;;12.25
67515;BMP280;60646;55.802;37.032;2023-10-31T01:47:13;99080.31;;;12.22
67515;BMP280;60646;55.802;37.032;2023-10-31T01:49:39;99105.72;;;12.35
67515;BMP280;60646;55.802;37.032;2023-10-31T01:52:06;99088.59;;;12.24
67515;BMP280;60646;55.802;37.032;2023-10-31T01:54:35;99093.41;;;12.26
67515;BMP280;60646;55.802;37.032;2023-10-31T01:57:02;99079.00;;;12.10
67515;BMP280;60646;55.802;37.032;2023-10-31T01:59:30;99095.56;;;12.27
67515;BMP280;60646;55.802;37.032;2023-10-31T02:01:57;99105.81;;;12.29
67515;BMP280;60646;55.802;37.032;2023-10-31T02:04:24;99108.97;;;12.27
67515;BMP280;60646;55.802;37.032;2023-10-31T02:06:50;99110.44;;;12.28
67515;BMP280;60646;55.802;37.032;2023-10-31T02:09:34;99107.38;;;12.19
67515;BMP280;60646;55.802;37.032;2023-10-31T02:12:00;99113.91;;;12.23
67515;BMP280;60646;55.802;37.032;2023-10-31T02:14:26;99156.75;;;12.42
67515;BMP280;60646;55.802;37.032;2023-10-31T02:16:51;99163.34;;;12.41
67515;BMP280;60646;55.802;37.032;2023-10-31T02:19:20;99143.00;;;12.33
67515;BMP280;60646;55.802;37.032;2023-10-31T02:21:46;99133.38;;;12.24
67515;BMP280;60646;55.802;37.032;2023-10-31T02:24:12;99171.81;;;12.45
67515;BMP280;60646;55.802;37.032;2023-10-31T02:26:38;99159.81;;;12.33
67515;BMP280;60646;55.802;37.032;2023-10-31T02:29:04;99143.84;;;12.22
67515;BMP280;60646;55.802;37.032;2023-10-31T02:31:30;99162.69;;;12.35
67515;BMP280;60646;55.802;37.032;2023-10-31T02:33:56;99149.66;;;12.26
67515;BMP280;60646;55.802;37.032;2023-10-31T02:36:22;99162.69;;;12.35
67515;BMP280;60646;55.802;37.032;2023-10-31T02:38:49;99157.88;;;12.34
67515;BMP280;60646;55.802;37.032;2023-10-31T02:41:15;99162.03;;;12.29
67515;BMP280;60646;55.802;37.032;2023-10-31T02:43:41;99165.16;;;12.33
67515;BMP280;60646;55.802;37.032;2023-10-31T02:46:08;99151.88;;;12.22
67515;BMP280;60646;55.802;37.032;2023-10-31T02:48:34;99155.75;;;12.26
67515;BMP280;60646;55.802;37.032;2023-10-31T02:51:07;99168.81;;;12.30
67515;BMP280;60646;55.802;37.032;2023-10-31T02:53:34;99196.94;;;12.42
67515;BMP280;60646;55.802;37.032;2023-10-31T02:56:02;99177.44;;;12.23
67515;BMP280;60646;55.802;37.032;2023-10-31T02:58:28;99191.28;;;12.27
67515;BMP280;60646;55.802;37.032;2023-10-31T03:00:54;99172.41;;;12.14
67515;BMP280;60646;55.802;37.032;2023-10-31T03:03:20;99174.88;;;12.12
67515;BMP280;60646;55.802;37.032;2023-10-31T03:05:46;99194.97;;;12.24
67515;BMP280;60646;55.802;37.032;2023-10-31T03:08:11;99186.00;;;12.16
67515;BMP280;60646;55.802;37.032;2023-10-31T03:10:38;99185.78;;;12.14
67515;BMP280;60646;55.802;37.032;2023-10-31T03:13:04;99183.81;;;12.20
67515;BMP280;60646;55.802;37.032;2023-10-31T03:15:30;99181.16;;;12.20
67515;BMP280;60646;55.802;37.032;2023-10-31T03:17:57;99192.03;;;12.22
67515;BMP280;60646;55.802;37.032;2023-10-31T03:20:23;99170.75;;;12.11
67515;BMP280;60646;55.802;37.032;2023-10-31T03:22:49;99196.19;;;12.23
67515;BMP280;60646;55.802;37.032;2023-10-31T03:25:14;99202.75;;;12.22
67515;BMP280;60646;55.802;37.032;2023-10-31T03:27:40;99182.91;;;12.12
67515;BMP280;60646;55.802;37.032;2023-10-31T03:30:06;99209.56;;;12.23
67515;BMP280;60646;55.802;37.032;2023-10-31T03:32:33;99175.94;;;12.03
67515;BMP280;60646;55.802;37.032;2023-10-31T03:34:58;99204.75;;;12.16
67515;BMP280;60646;55.802;37.032;2023-10-31T03:37:25;99198.75;;;12.10
67515;BMP280;60646;55.802;37.032;2023-10-31T03:39:50;99185.38;;;12.10
67515;BMP280;60646;55.802;37.032;2023-10-31T03:42:16;99188.25;;;12.12
67515;BMP280;60646;55.802;37.032;2023-10-31T03:44:42;99172.59;;;11.97
67515;BMP280;60646;55.802;37.032;2023-10-31T03:47:08;99193.16;;;12.08
67515;BMP280;60646;55.802;37.032;2023-10-31T03:49:39;99204.06;;;12.15
67515;BMP280;60646;55.802;37.032;2023-10-31T03:52:05;99209.69;;;12.12
67515;BMP280;60646;55.802;37.032;2023-10-31T03:54:31;99215.03;;;12.12
67515;BMP280;60646;55.802;37.032;2023-10-31T03:56:57;99208.94;;;12.11
67515;BMP280;60646;55.802;37.032;2023-10-31T03:59:22;99207.22;;;12.14
67515;BMP280;60646;55.802;37.032;2023-10-31T04:01:48;99216.50;;;12.13
67515;BMP280;60646;55.802;37.032;2023-10-31T04:04:14;99187.25;;;11.91
67515;BMP280;60646;55.802;37.032;2023-10-31T04:06:40;99225.75;;;12.12
67515;BMP280;60646;55.802;37.032;2023-10-31T04:09:06;99241.25;;;12.19
67515;BMP280;60646;55.802;37.032;2023-10-31T04:11:32;99220.91;;;12.10
67515;BMP280;60646;55.802;37.032;2023-10-31T04:13:58;99233.00;;;12.17
67515;BMP280;60646;55.802;37.032;2023-10-31T04:16:23;99235.91;;;12.19
67515;BMP280;60646;55.802;37.032;2023-10-31T04:18:49;99235.91;;;12.19
67515;BMP280;60646;55.802;37.032;2023-10-31T04:21:15;99243.81;;;12.30
67515;BMP280;60646;55.802;37.032;2023-10-31T04:23:41;99247.00;;;12.28
67515;BMP280;60646;55.802;37.032;2023-10-31T04:26:06;99232.44;;;12.24
67515;BMP280;60646;55.802;37.032;2023-10-31T04:28:32;99240.41;;;12.29
67515;BMP280;60646;55.802;37.032;2023-10-31T04:30:58;99251.41;;;12.26
67515;BMP280;60646;55.802;37.032;2023-10-31T04:33:27;99225.53;;;12.10
67515;BMP280;60646;55.802;37.032;2023-10-31T04:35:53;99253.34;;;12.25
67515;BMP280;60646;55.802;37.032;2023-10-31T04:38:18;99242.25;;;12.16
67515;BMP280;60646;55.802;37.032;2023-10-31T04:40:44;99240.06;;;12.14
67515;BMP280;60646;55.802;37.032;2023-10-31T04:43:10;99256.59;;;12.18
67515;BMP280;60646;55.802;37.032;2023-10-31T04:45:35;99261.22;;;12.18
67515;BMP280;60646;55.802;37.032;2023-10-31T04:48:01;99264.59;;;12.24
67515;BMP280;60646;55.802;37.032;2023-10-31T04:50:27;99278.19;;;12.26
67515;BMP280;60646;55.802;37.032;2023-10-31T04:52:53;99255.91;;;12.12
67515;BMP280;60646;55.802;37.032;2023-10-31T04:55:18;99261.06;;;12.10
67515;BMP280;60646;55.802;37.032;2023-10-31T04:57:44;99267.56;;;12.15
67515;BMP280;60646;55.802;37.032;2023-10-31T05:00:12;99280.03;;;12.12
67515;BMP280;60646;55.802;37.032;2023-10-31T05:02:40;99266.94;;;12.03
67515;BMP280;60646;55.802;37.032;2023-10-31T05:05:15;99276.59;;;12.12
67515;BMP280;60646;55.802;37.032;2023-10-31T05:07:41;99254.84;;;11.97
67515;BMP280;60646;55.802;37.032;2023-10-31T05:10:07;99302.31;;;12.20
67515;BMP280;60646;55.802;37.032;2023-10-31T05:12:33;99248.34;;;11.87
67515;BMP280;60646;55.802;37.032;2023-10-31T05:14:59;99285.47;;;12.01
67515;BMP280;60646;55.802;37.032;2023-10-31T05:17:25;99299.75;;;12.09
67515;BMP280;60646;55.802;37.032;2023-10-31T05:19:51;99299.78;;;12.04
67515;BMP280;60646;55.802;37.032;2023-10-31T05:22:17;99290.81;;;12.01
67515;BMP280;60646;55.802;37.032;2023-10-31T05:24:42;99305.88;;;12.04
67515;BMP280;60646;55.802;37.032;2023-10-31T05:27:08;99313.44;;;12.06
67515;BMP280;60646;55.802;37.032;2023-10-31T05:29:38;99280.94;;;11.91
67515;BMP280;60646;55.802;37.032;2023-10-31T05:32:04;99313.19;;;12.04
67515;BMP280;60646;55.802;37.032;2023-10-31T05:34:30;99337.19;;;12.15
67515;BMP280;60646;55.802;37.032;2023-10-31T05:36:56;99315.38;;;12.00
67515;BMP280;60646;55.802;37.032;2023-10-31T05:39:22;99313.97;;;11.93
67515;BMP280;60646;55.802;37.032;2023-10-31T05:41:47;99331.91;;;12.04
67515;BMP280;60646;55.802;37.032;2023-10-31T05:44:13;99330.72;;;12.05
67515;BMP280;60646;55.802;37.032;2023-10-31T05:46:39;99353.25;;;12.15
67515;BMP280;60646;55.802;37.032;2023-10-31T05:49:09;99321.75;;;11.97
67515;BMP280;60646;55.802;37.032;2023-10-31T05:51:35;99343.81;;;12.08
67515;BMP280;60646;55.802;37.032;2023-10-31T05:54:01;99367.31;;;12.21
67515;BMP280;60646;55.802;37.032;2023-10-31T05:56:27;99364.44;;;12.19
67515;BMP280;60646;55.802;37.032;2023-10-31T05:58:53;99364.63;;;12.21
67515;BMP280;60646;55.802;37.032;2023-10-31T06:01:18;99364.44;;;12.19
67515;BMP280;60646;55.802;37.032;2023-10-31T06:03:44;99371.44;;;12.22
67515;BMP280;60646;55.802;37.032;2023-10-31T06:06:11;99378.00;;;12.21
67515;BMP280;60646;55.802;37.032;2023-10-31T06:08:38;99369.50;;;12.22
67515;BMP280;60646;55.802;37.032;2023-10-31T06:11:04;99369.97;;;12.26
67515;BMP280;60646;55.802;37.032;2023-10-31T06:13:30;99382.28;;;12.35
67515;BMP280;60646;55.802;37.032;2023-10-31T06:15:57;99392.66;;;12.50
67515;BMP280;60646;55.802;37.032;2023-10-31T06:18:24;99390.28;;;12.46
67515;BMP280;60646;55.802;37.032;2023-10-31T06:20:57;99388.03;;;12.50
67515;BMP280;60646;55.802;37.032;2023-10-31T06:24:09;99358.19;;;12.35
67515;BMP280;60646;55.802;37.032;2023-10-31T06:26:35;99382.13;;;12.57
67515;BMP280;60646;55.802;37.032;2023-10-31T06:29:01;99398.81;;;12.69
67515;BMP280;60646;55.802;37.032;2023-10-31T06:31:27;99381.13;;;12.60
67515;BMP280;60646;55.802;37.032;2023-10-31T06:33:53;99378.66;;;12.62
67515;BMP280;60646;55.802;37.032;2023-10-31T06:36:19;99392.16;;;12.75
67515;BMP280;60646;55.802;37.032;2023-10-31T06:38:44;99374.00;;;12.68
67515;BMP280;60646;55.802;37.032;2023-10-31T06:41:10;99403.25;;;12.90
67515;BMP280;60646;55.802;37.032;2023-10-31T06:43:36;99399.34;;;12.92
67515;BMP280;60646;55.802;37.032;2023-10-31T06:46:02;99391.53;;;12.94
67515;BMP280;60646;55.802;37.032;2023-10-31T06:48:29;99375.28;;;12.86
67515;BMP280;60646;55.802;37.032;2023-10-31T06:50:55;99395.09;;;13.02
67515;BMP280;60646;55.802;37.032;2023-10-31T06:53:21;99413.25;;;13.14
67515;BMP280;60646;55.802;37.032;2023-10-31T06:55:47;99412.28;;;13.12
67515;BMP280;60646;55.802;37.032;2023-10-31T06:58:14;99411.97;;;13.15
67515;BMP280;60646;55.802;37.032;2023-10-31T07:00:40;99423.34;;;13.27
67515;BMP280;60646;55.802;37.032;2023-10-31T07:03:06;99424.78;;;13.28
67515;BMP280;60646;55.802;37.032;2023-10-31T07:05:37;99444.13;;;13.45
67515;BMP280;60646;55.802;37.032;2023-10-31T07:08:04;99427.56;;;13.41
67515;BMP280;60646;55.802;37.032;2023-10-31T07:10:30;99420.78;;;13.34
67515;BMP280;60646;55.802;37.032;2023-10-31T07:12:56;99433.38;;;13.45
67515;BMP280;60646;55.802;37.032;2023-10-31T07:15:25;99445.41;;;13.57
67515;BMP280;60646;55.802;37.032;2023-10-31T07:17:50;99443.53;;;13.52
67515;BMP280;60646;55.802;37.032;2023-10-31T07:20:16;99448.03;;;13.63
67515;BMP280;60646;55.802;37.032;2023-10-31T07:22:43;99449.66;;;13.71
67515;BMP280;60646;55.802;37.032;2023-10-31T07:25:09;99455.44;;;13.75
67515;BMP280;60646;55.802;37.032;2023-10-31T07:27:35;99460.47;;;13.84
67515;BMP280;60646;55.802;37.032;2023-10-31T07:30:03;99448.13;;;13.76
67515;BMP280;60646;55.802;37.032;2023-10-31T07:32:30;99456.97;;;13.89
67515;BMP280;60646;55.802;37.032;2023-10-31T07:34:56;99456.41;;;13.96
67515;BMP280;60646;55.802;37.032;2023-10-31T07:37:22;99488.06;;;14.17
67515;BMP280;60646;55.802;37.032;2023-10-31T07:39:48;99492.88;;;14.24
67515;BMP280;60646;55.802;37.032;2023-10-31T07:42:14;99485.09;;;14.20
67515;BMP280;60646;55.802;37.032;2023-10-31T07:44:40;99487.50;;;14.24
67515;BMP280;60646;55.802;37.032;2023-10-31T07:47:05;99481.13;;;14.27
67515;BMP280;60646;55.802;37.032;2023-10-31T07:49:31;99497.06;;;14.38
67515;BMP280;60646;55.802;37.032;2023-10-31T07:51:57;99503.56;;;14.42
67515;BMP280;60646;55.802;37.032;2023-10-31T07:54:23;99507.75;;;14.56
67515;BMP280;60646;55.802;37.032;2023-10-31T07:56:49;99515.75;;;14.62
67515;BMP280;60646;55.802;37.032;2023-10-31T07:59:15;99486.97;;;14.44
67515;BMP280;60646;55.802;37.032;2023-10-31T08:01:40;99493.41;;;14.54
67515;BMP280;60646;55.802;37.032;2023-10-31T08:04:06;99489.16;;;14.58
67515;BMP280;60646;55.802;37.032;2023-10-31T08:06:32;99496.13;;;14.67
67515;BMP280;60646;55.802;37.032;2023-10-31T08:08:59;99497.78;;;14.83
67515;BMP280;60646;55.802;37.032;2023-10-31T08:11:25;99502.97;;;14.81
67515;BMP280;60646;55.802;37.032;2023-10-31T08:13:53;99493.13;;;14.70
67515;BMP280;60646;55.802;37.032;2023-10-31T08:16:19;99516.22;;;14.92
67515;BMP280;60646;55.802;37.032;2023-10-31T08:18:46;99489.94;;;14.72
67515;BMP280;60646;55.802;37.032;2023-10-31T08:21:13;99495.34;;;14.85
67515;BMP280;60646;55.802;37.032;2023-10-31T08:23:38;99494.50;;;14.90
67515;BMP280;60646;55.802;37.032;2023-10-31T08:26:04;99489.88;;;14.91
67515;BMP280;60646;55.802;37.032;2023-10-31T08:28:30;99496.78;;;14.99
67515;BMP280;60646;55.802;37.032;2023-10-31T08:30:57;99503.50;;;15.06
67515;BMP280;60646;55.802;37.032;2023-10-31T08:33:23;99498.97;;;15.01
67515;BMP280;60646;55.802;37.032;2023-10-31T08:35:49;99525.25;;;15.21
67515;BMP280;60646;55.802;37.032;2023-10-31T08:38:16;99498.44;;;15.02
67515;BMP280;60646;55.802;37.032;2023-10-31T08:40:42;99503.84;;;15.02
67515;BMP280;60646;55.802;37.032;2023-10-31T08:43:08;99512.72;;;15.10
67515;BMP280;60646;55.802;37.032;2023-10-31T08:45:34;99513.03;;;15.20
67515;BMP280;60646;55.802;37.032;2023-10-31T08:48:01;99513.03;;;15.20
67515;BMP280;60646;55.802;37.032;2023-10-31T08:50:27;99527.44;;;15.22
67515;BMP280;60646;55.802;37.032;2023-10-31T08:52:53;99520.59;;;15.21
67515;BMP280;60646;55.802;37.032;2023-10-31T08:55:19;99510.88;;;15.18
67515;BMP280;60646;55.802;37.032;2023-10-31T08:57:45;99523.19;;;15.27
67515;BMP280;60646;55.802;37.032;2023-10-31T09:00:11;99519.97;;;15.28
67515;BMP280;60646;55.802;37.032;2023-10-31T09:02:38;99524.31;;;15.31
67515;BMP280;60646;55.802;37.032;2023-10-31T09:05:04;99518.13;;;15.23
67515;BMP280;60646;55.802;37.032;2023-10-31T09:07:31;99529.81;;;15.39
67515;BMP280;60646;55.802;37.032;2023-10-31T09:09:58;99533.25;;;15.39
67515;BMP280;60646;55.802;37.032;2023-10-31T09:12:24;99521.44;;;15.29
67515;BMP280;60646;55.802;37.032;2023-10-31T09:14:50;99510.66;;;15.29
67515;BMP280;60646;55.802;37.032;2023-10-31T09:17:15;99526.19;;;15.36
67515;BMP280;60646;55.802;37.032;2023-10-31T09:19:41;99520.81;;;15.36
67515;BMP280;60646;55.802;37.032;2023-10-31T09:22:07;99512.34;;;15.32
67515;BMP280;60646;55.802;37.032;2023-10-31T09:24:33;99521.84;;;15.47
67515;BMP280;60646;55.802;37.032;2023-10-31T09:26:59;99507.94;;;15.42
67515;BMP280;60646;55.802;37.032;2023-10-31T09:29:25;99518.13;;;15.50
67515;BMP280;60646;55.802;37.032;2023-10-31T09:31:50;99505.88;;;15.49
67515;BMP280;60646;55.802;37.032;2023-10-31T09:34:16;99511.47;;;15.64
67515;BMP280;60646;55.802;37.032;2023-10-31T09:36:43;99498.84;;;15.59
67515;BMP280;60646;55.802;37.032;2023-10-31T09:39:09;99496.75;;;15.65
67515;BMP280;60646;55.802;37.032;2023-10-31T09:41:35;99492.81;;;15.66
67515;BMP280;60646;55.802;37.032;2023-10-31T09:44:01;99498.59;;;15.70
67515;BMP280;60646;55.802;37.032;2023-10-31T09:46:28;99499.41;;;15.78
67515;BMP280;60646;55.802;37.032;2023-10-31T09:48:55;99518.03;;;15.89
67515;BMP280;60646;55.802;37.032;2023-10-31T09:51:21;99503.03;;;15.80
67515;BMP280;60646;55.802;37.032;2023-10-31T09:53:47;99504.19;;;15.85
67515;BMP280;60646;55.802;37.032;2023-10-31T09:56:14;99519.06;;;15.99
67515;BMP280;60646;55.802;37.032;2023-10-31T09:58:40;99515.00;;;15.92
67515;BMP280;60646;55.802;37.032;2023-10-31T10:01:07;99525.06;;;15.92
67515;BMP280;60646;55.802;37.032;2023-10-31T10:03:33;99533.31;;;16.07
67515;BMP280;60646;55.802;37.032;2023-10-31T10:06:02;99517.97;;;16.02
67515;BMP280;60646;55.802;37.032;2023-10-31T10:08:29;99526.16;;;16.09
67515;BMP280;60646;55.802;37.032;2023-10-31T10:10:55;99524.19;;;16.10
67515;BMP280;60646;55.802;37.032;2023-10-31T10:13:21;99512.69;;;16.09
67515;BMP280;60646;55.802;37.032;2023-10-31T10:15:51;99518.94;;;16.25
67515;BMP280;60646;55.802;37.032;2023-10-31T10:18:27;99482.72;;;16.13
67515;BMP280;60646;55.802;37.032;2023-10-31T10:20:59;99480.44;;;16.17
67515;BMP280;60646;55.802;37.032;2023-10-31T10:23:25;99522.25;;;16.31
67515;BMP280;60646;55.802;37.032;2023-10-31T10:25:52;99486.00;;;16.19
67515;BMP280;60646;55.802;37.032;2023-10-31T10:28:18;99478.97;;;16.16
67515;BMP280;60646;55.802;37.032;2023-10-31T10:30:46;99475.06;;;16.17
67515;BMP280;60646;55.802;37.032;2023-10-31T10:33:13;99495.03;;;16.42
67515;BMP280;60646;55.802;37.032;2023-10-31T10:35:39;99472.47;;;16.32
67515;BMP280;60646;55.802;37.032;2023-10-31T10:38:11;99473.72;;;16.31
67515;BMP280;60646;55.802;37.032;2023-10-31T10:40:46;99475.69;;;16.31
67515;BMP280;60646;55.802;37.032;2023-10-31T10:43:15;99455.97;;;16.15
67515;BMP280;60646;55.802;37.032;2023-10-31T10:45:44;99476.59;;;16.33
67515;BMP280;60646;55.802;37.032;2023-10-31T10:48:11;99463.28;;;16.28
67515;BMP280;60646;55.802;37.032;2023-10-31T10:50:42;99478.06;;;16.34
67515;BMP280;60646;55.802;37.032;2023-10-31T10:53:16;99475.56;;;16.36
67515;BMP280;60646;55.802;37.032;2023-10-31T10:55:51;99486.94;;;16.42
67515;BMP280;60646;55.802;37.032;2023-10-31T10:58:40;99496.00;;;16.52
67515;BMP280;60646;55.802;37.032;2023-10-31T11:01:08;99503.03;;;16.55
67515;BMP280;60646;55.802;37.032;2023-10-31T11:03:34;99490.16;;;16.41
67515;BMP280;60646;55.802;37.032;2023-10-31T11:06:01;99494.38;;;16.49
67515;BMP280;60646;55.802;37.032;2023-10-31T11:08:28;99480.75;;;16.34
67515;BMP280;60646;55.802;37.032;2023-10-31T11:10:55;99485.09;;;16.37
67515;BMP280;60646;55.802;37.032;2023-10-31T11:13:22;99478.91;;;16.29
67515;BMP280;60646;55.802;37.032;2023-10-31T11:15:52;99494.81;;;16.40
67515;BMP280;60646;55.802;37.032;2023-10-31T11:18:20;99477.84;;;16.32
67515;BMP280;60646;55.802;37.032;2023-10-31T11:20:46;99493.19;;;16.37
67515;BMP280;60646;55.802;37.032;2023-10-31T11:23:13;99487.38;;;16.33
67515;BMP280;60646;55.802;37.032;2023-10-31T11:25:42;99491.75;;;16.36
67515;BMP280;60646;55.802;37.032;2023-10-31T11:28:13;99501.75;;;16.49
67515;BMP280;60646;55.802;37.032;2023-10-31T11:30:40;99491.09;;;16.43
67515;BMP280;60646;55.802;37.032;2023-10-31T11:33:11;99475.75;;;16.38
67515;BMP280;60646;55.802;37.032;2023-10-31T11:35:41;99457.47;;;16.24
67515;BMP280;60646;55.802;37.032;2023-10-31T11:38:10;99499.75;;;16.49
67515;BMP280;60646;55.802;37.032;2023-10-31T11:43:20;99480.31;;;16.43
67515;BMP280;60646;55.802;37.032;2023-10-31T11:45:47;99453.19;;;16.28
67515;BMP280;60646;55.802;37.032;2023-10-31T11:48:14;99488.66;;;16.53
67515;BMP280;60646;55.802;37.032;2023-10-31T11:50:40;99476.88;;;16.43
67515;BMP280;60646;55.802;37.032;2023-10-31T11:53:11;99463.34;;;16.35
67515;BMP280;60646;55.802;37.032;2023-10-31T11:55:47;99487.91;;;16.52
67515;BMP280;60646;55.802;37.032;2023-10-31T12:00:49;99480.34;;;16.51
67515;BMP280;60646;55.802;37.032;2023-10-31T12:03:17;99443.47;;;16.25
67515;BMP280;60646;55.802;37.032;2023-10-31T12:05:58;99455.81;;;16.41
67515;BMP280;60646;55.802;37.032;2023-10-31T12:08:31;99454.31;;;16.33
67515;BMP280;60646;55.802;37.032;2023-10-31T12:11:12;99482.16;;;16.48
67515;BMP280;60646;55.802;37.032;2023-10-31T12:13:40;99450.31;;;16.26
67515;BMP280;60646;55.802;37.032;2023-10-31T12:16:07;99481.34;;;16.40
67515;BMP280;60646;55.802;37.032;2023-10-31T12:18:34;99475.75;;;16.38
67515;BMP280;60646;55.802;37.032;2023-10-31T12:21:01;99449.94;;;16.22
67515;BMP280;60646;55.802;37.032;2023-10-31T12:23:27;99456.19;;;16.17
67515;BMP280;60646;55.802;37.032;2023-10-31T12:25:53;99461.75;;;16.19
67515;BMP280;60646;55.802;37.032;2023-10-31T12:28:20;99448.66;;;16.02
67515;BMP280;60646;55.802;37.032;2023-10-31T12:30:48;99444.38;;;16.07
67515;BMP280;60646;55.802;37.032;2023-10-31T12:33:14;99458.47;;;16.13
67515;BMP280;60646;55.802;37.032;2023-10-31T12:35:41;99439.84;;;16.02
67515;BMP280;60646;55.802;37.032;2023-10-31T12:38:10;99457.41;;;16.16
67515;BMP280;60646;55.802;37.032;2023-10-31T12:40:37;99464.44;;;16.19
67515;BMP280;60646;55.802;37.032;2023-10-31T12:43:03;99451.66;;;16.12
67515;BMP280;60646;55.802;37.032;2023-10-31T12:45:47;99468.41;;;16.18
67515;BMP280;60646;55.802;37.032;2023-10-31T12:48:13;99461.34;;;16.15
67515;BMP280;60646;55.802;37.032;2023-10-31T12:50:39;99463.19;;;16.20
67515;BMP280;60646;55.802;37.032;2023-10-31T12:53:09;99459.91;;;16.14
67515;BMP280;60646;55.802;37.032;2023-10-31T12:55:41;99488.22;;;16.28
67515;BMP280;60646;55.802;37.032;2023-10-31T12:58:07;99481.22;;;16.25
67515;BMP280;60646;55.802;37.032;2023-10-31T13:00:36;99465.56;;;16.03
67515;BMP280;60646;55.802;37.032;2023-10-31T13:03:05;99474.25;;;16.09
67515;BMP280;60646;55.802;37.032;2023-10-31T13:05:31;99475.28;;;16.06
67515;BMP280;60646;55.802;37.032;2023-10-31T13:07:58;99480.50;;;16.04
67515;BMP280;60646;55.802;37.032;2023-10-31T13:10:27;99500.16;;;16.12
67515;BMP280;60646;55.802;37.032;2023-10-31T13:12:54;99491.38;;;15.98
67515;BMP280;60646;55.802;37.032;2023-10-31T13:15:22;99484.47;;;15.90
67515;BMP280;60646;55.802;37.032;2023-10-31T13:17:49;99482.00;;;15.79
67515;BMP280;60646;55.802;37.032;2023-10-31T13:20:17;99484.13;;;15.73
67515;BMP280;60646;55.802;37.032;2023-10-31T13:22:43;99460.00;;;15.54
67515;BMP280;60646;55.802;37.032;2023-10-31T13:25:11;99495.19;;;15.69
67515;BMP280;60646;55.802;37.032;2023-10-31T13:27:37;99506.16;;;15.71
67515;BMP280;60646;55.802;37.032;2023-10-31T13:30:04;99503.59;;;15.66
67515;BMP280;60646;55.802;37.032;2023-10-31T13:32:31;99476.06;;;15.47
67515;BMP280;60646;55.802;37.032;2023-10-31T13:34:57;99475.25;;;15.38
67515;BMP280;60646;55.802;37.032;2023-10-31T13:37:23;99470.94;;;15.35
67515;BMP280;60646;55.802;37.032;2023-10-31T13:39:49;99466.38;;;15.30
67515;BMP280;60646;55.802;37.032;2023-10-31T13:42:15;99479.84;;;15.30
67515;BMP280;60646;55.802;37.032;2023-10-31T13:44:41;99469.69;;;15.23
67515;BMP280;60646;55.802;37.032;2023-10-31T13:47:07;99475.09;;;15.23
67515;BMP280;60646;55.802;37.032;2023-10-31T13:49:33;99459.94;;;15.20
67515;BMP280;60646;55.802;37.032;2023-10-31T13:51:59;99465.75;;;15.24
67515;BMP280;60646;55.802;37.032;2023-10-31T13:54:26;99468.56;;;15.19
67515;BMP280;60646;55.802;37.032;2023-10-31T13:56:52;99482.28;;;15.28
67515;BMP280;60646;55.802;37.032;2023-10-31T13:59:18;99480.66;;;15.12